Time;durP1;ratioP1;P1;durP2;ratioP2;P2;SDS_P1;SDS_P2;PMS_P1;PMS_P2;Temp;Humidity;BMP_temperature;BMP_pressure;BME280_temperature;BME280_humidity;BME280_pressure;Samples;Min_cycle;Max_cycle;Signal;HPM_P1;HPM_P2
2023/09/14 00:01:00;;;;;;;7.20;2.17;;;15.50;99.90;;;;;;5032251;28;20068;-56
2023/09/14 00:03:27;;;;;;;11.30;2.50;;;15.50;99.90;;;;;;5033082;28;20133;-55
2023/09/14 00:05:54;;;;;;;8.65;2.72;;;15.50;99.90;;;;;;5032626;28;20128;-60
2023/09/14 00:08:21;;;;;;;7.57;2.60;;;15.50;99.90;;;;;;5032704;28;20045;-54
2023/09/14 00:10:48;;;;;;;9.75;2.60;;;15.50;99.90;;;;;;5032769;28;20046;-55
2023/09/14 00:13:15;;;;;;;9.25;2.63;;;15.50;99.90;;;;;;5031866;28;20050;-55
2023/09/14 00:15:42;;;;;;;6.47;2.70;;;15.50;99.90;;;;;;5032425;28;20038;-57
2023/09/14 00:18:09;;;;;;;8.73;2.47;;;15.50;99.90;;;;;;5032805;28;20053;-57
2023/09/14 00:20:36;;;;;;;7.55;3.08;;;15.50;99.90;;;;;;5033043;28;20045;-60
2023/09/14 00:23:03;;;;;;;8.98;2.35;;;15.50;99.90;;;;;;5032472;28;20041;-58
2023/09/14 00:25:30;;;;;;;9.85;2.92;;;15.50;99.90;;;;;;5032751;28;20041;-57
2023/09/14 00:27:57;;;;;;;10.98;2.60;;;15.50;99.90;;;;;;5031498;28;20033;-60
2023/09/14 00:30:24;;;;;;;8.68;2.53;;;15.50;99.90;;;;;;5031834;28;20050;-59
2023/09/14 00:32:52;;;;;;;6.97;2.38;;;15.50;99.90;;;;;;5032759;28;20037;-57
2023/09/14 00:35:19;;;;;;;6.45;2.45;;;15.50;99.90;;;;;;5031891;28;20129;-55
2023/09/14 00:37:45;;;;;;;10.07;2.58;;;15.50;99.90;;;;;;5032208;28;20468;-60
2023/09/14 00:40:12;;;;;;;7.28;2.65;;;15.50;99.90;;;;;;5031198;28;20038;-55
2023/09/14 00:42:39;;;;;;;8.80;2.80;;;15.40;99.90;;;;;;5034719;28;20037;-60
2023/09/14 00:45:06;;;;;;;10.88;2.75;;;15.40;99.90;;;;;;5034331;28;20072;-56
2023/09/14 00:47:33;;;;;;;8.57;2.75;;;15.40;99.90;;;;;;5035355;28;20112;-58
2023/09/14 00:50:00;;;;;;;7.63;2.53;;;15.30;99.90;;;;;;5035982;28;20155;-55
2023/09/14 00:52:27;;;;;;;9.52;2.60;;;15.30;99.90;;;;;;5017925;28;20143;-55
2023/09/14 00:54:54;;;;;;;10.82;2.40;;;15.20;99.90;;;;;;5035469;28;20058;-60
2023/09/14 00:57:20;;;;;;;8.15;2.38;;;15.20;99.90;;;;;;5033697;28;20094;-57
2023/09/14 00:59:47;;;;;;;9.23;2.88;;;15.20;99.90;;;;;;5033437;28;20389;-58
2023/09/14 01:02:15;;;;;;;10.35;2.90;;;15.10;99.90;;;;;;5034286;28;20488;-57
2023/09/14 01:04:41;;;;;;;7.53;2.30;;;15.10;99.90;;;;;;5034443;28;20049;-56
2023/09/14 01:07:09;;;;;;;7.25;2.70;;;15.10;99.90;;;;;;5035313;28;20088;-56
2023/09/14 01:09:36;;;;;;;6.70;2.78;;;15.10;99.90;;;;;;5034964;28;20429;-57
2023/09/14 01:12:03;;;;;;;7.63;2.83;;;15.00;99.90;;;;;;5035284;28;20408;-53
2023/09/14 01:14:30;;;;;;;8.80;2.80;;;15.00;99.90;;;;;;5033968;28;20055;-58
2023/09/14 01:16:59;;;;;;;6.82;2.80;;;15.00;99.90;;;;;;5034016;28;20465;-54
2023/09/14 01:19:26;;;;;;;6.85;2.70;;;15.00;99.90;;;;;;5017572;28;20053;-52
2023/09/14 01:21:53;;;;;;;9.07;2.60;;;15.00;99.90;;;;;;5034733;28;20397;-56
2023/09/14 01:24:20;;;;;;;8.60;2.50;;;14.90;99.90;;;;;;5033655;28;20514;-57
2023/09/14 01:26:46;;;;;;;7.65;2.72;;;14.90;99.90;;;;;;5034166;28;20050;-56
2023/09/14 01:29:14;;;;;;;7.57;2.53;;;14.90;99.90;;;;;;5017760;28;20397;-58
2023/09/14 01:31:42;;;;;;;8.30;2.67;;;14.90;99.90;;;;;;5033494;28;20469;-58
2023/09/14 01:34:09;;;;;;;9.10;2.40;;;14.80;99.90;;;;;;5032797;28;20037;-56
2023/09/14 01:36:36;;;;;;;6.85;2.72;;;14.80;99.90;;;;;;5033663;28;20401;-55
2023/09/14 01:39:04;;;;;;;7.43;2.92;;;14.70;99.90;;;;;;5033524;28;20046;-53
2023/09/14 01:41:34;;;;;;;11.23;2.63;;;14.70;99.90;;;;;;5034099;28;20041;-53
2023/09/14 01:44:01;;;;;;;7.07;2.50;;;14.70;99.90;;;;;;5033054;28;20183;-57
2023/09/14 01:46:28;;;;;;;11.85;3.65;;;14.70;99.90;;;;;;5034646;28;20542;-58
2023/09/14 01:48:55;;;;;;;9.60;2.55;;;14.60;99.90;;;;;;5033510;28;20451;-60
2023/09/14 01:51:22;;;;;;;10.30;2.80;;;14.60;99.90;;;;;;5033429;28;20068;-55
2023/09/14 01:53:49;;;;;;;7.82;2.38;;;14.60;99.90;;;;;;5034003;28;20106;-55
2023/09/14 01:56:16;;;;;;;7.05;2.40;;;14.60;99.90;;;;;;5032543;28;20042;-60
2023/09/14 01:58:42;;;;;;;7.65;2.83;;;14.60;99.90;;;;;;5032896;28;20469;-56
2023/09/14 02:01:10;;;;;;;7.50;2.50;;;14.60;99.90;;;;;;5033416;28;20400;-56
2023/09/14 02:03:37;;;;;;;5.43;2.55;;;14.50;99.90;;;;;;5032797;28;20511;-59
2023/09/14 02:06:05;;;;;;;7.72;2.95;;;14.50;99.90;;;;;;5034994;28;20040;-55
2023/09/14 02:08:32;;;;;;;10.45;2.80;;;14.50;99.90;;;;;;5034146;28;20044;-57
2023/09/14 02:10:59;;;;;;;8.00;3.03;;;14.40;99.90;;;;;;5034815;28;20038;-53
2023/09/14 02:13:28;;;;;;;6.95;2.75;;;14.40;99.90;;;;;;5034246;28;20090;-57
2023/09/14 02:15:55;;;;;;;6.82;2.70;;;14.40;99.90;;;;;;5033081;28;20049;-59
2023/09/14 02:18:22;;;;;;;9.80;2.90;;;14.40;99.90;;;;;;5032207;28;20432;-56
2023/09/14 02:20:49;;;;;;;9.18;3.13;;;14.30;99.90;;;;;;5033859;28;20038;-59
2023/09/14 02:23:17;;;;;;;5.82;2.90;;;14.30;99.90;;;;;;5034322;28;20116;-57
2023/09/14 02:25:44;;;;;;;9.20;2.90;;;14.30;99.90;;;;;;5033928;28;20390;-52
2023/09/14 02:28:11;;;;;;;6.28;2.50;;;14.30;99.90;;;;;;5033663;28;20473;-57
2023/09/14 02:30:38;;;;;;;8.13;2.90;;;14.20;99.90;;;;;;5032067;28;20439;-53
2023/09/14 02:33:07;;;;;;;8.32;2.67;;;14.20;99.90;;;;;;5032727;28;20362;-57
2023/09/14 02:35:35;;;;;;;7.05;2.80;;;14.20;99.90;;;;;;5034305;28;20103;-55
2023/09/14 02:38:02;;;;;;;4.68;2.47;;;14.20;99.90;;;;;;5032317;28;20072;-54
2023/09/14 02:40:29;;;;;;;7.50;2.65;;;14.20;99.90;;;;;;5032459;28;20144;-59
2023/09/14 02:42:56;;;;;;;6.40;2.65;;;14.20;99.90;;;;;;5031789;28;20049;-55
2023/09/14 02:45:23;;;;;;;9.35;2.92;;;14.20;99.90;;;;;;5032520;28;20055;-54
2023/09/14 02:47:50;;;;;;;6.65;2.65;;;14.10;99.90;;;;;;5033454;28;20046;-55
2023/09/14 02:50:17;;;;;;;10.63;2.83;;;14.10;99.90;;;;;;5033828;28;20064;-57
2023/09/14 02:52:44;;;;;;;7.57;2.72;;;14.10;99.90;;;;;;5033094;28;20055;-49
2023/09/14 02:55:11;;;;;;;7.30;2.33;;;14.10;99.90;;;;;;5033490;28;20131;-57
2023/09/14 02:57:37;;;;;;;7.78;2.80;;;14.10;99.90;;;;;;5032292;28;20048;-54
2023/09/14 03:00:06;;;;;;;8.07;2.95;;;14.00;99.90;;;;;;5033465;28;20046;-54
2023/09/14 03:02:33;;;;;;;7.00;2.53;;;14.00;99.90;;;;;;5032849;28;20045;-57
2023/09/14 03:05:00;;;;;;;8.10;3.13;;;14.00;99.90;;;;;;5032627;28;20134;-55
2023/09/14 03:07:28;;;;;;;8.95;2.63;;;13.90;99.90;;;;;;5031718;28;20577;-54
2023/09/14 03:09:55;;;;;;;6.40;2.50;;;13.90;99.90;;;;;;5015710;28;20041;-55
2023/09/14 03:12:22;;;;;;;7.60;2.85;;;13.90;99.90;;;;;;5032028;28;20163;-56
2023/09/14 03:14:49;;;;;;;7.18;2.80;;;13.90;99.90;;;;;;5032195;28;20049;-56
2023/09/14 03:17:16;;;;;;;4.82;2.65;;;13.90;99.90;;;;;;5030913;28;20132;-58
2023/09/14 03:19:43;;;;;;;10.95;2.80;;;13.90;99.90;;;;;;5033116;28;20038;-57
2023/09/14 03:22:11;;;;;;;7.60;2.92;;;13.90;99.90;;;;;;5031715;28;20392;-53
2023/09/14 03:24:38;;;;;;;7.97;2.60;;;13.90;99.90;;;;;;5032186;28;20037;-52
2023/09/14 03:27:05;;;;;;;6.35;2.63;;;13.90;99.90;;;;;;5032556;28;20049;-51
2023/09/14 03:29:32;;;;;;;7.65;2.63;;;13.90;99.90;;;;;;5031215;28;20041;-55
2023/09/14 03:32:00;;;;;;;7.03;2.75;;;13.90;99.90;;;;;;5032274;28;20049;-55
2023/09/14 03:34:28;;;;;;;5.88;2.60;;;13.90;99.90;;;;;;5031404;28;20393;-55
2023/09/14 03:36:55;;;;;;;7.85;2.65;;;13.90;99.90;;;;;;5032682;28;20037;-55
2023/09/14 03:39:22;;;;;;;6.05;2.35;;;13.80;99.90;;;;;;5030889;28;20050;-58
2023/09/14 03:41:49;;;;;;;7.97;2.75;;;13.80;99.90;;;;;;5031713;28;20121;-58
2023/09/14 03:44:16;;;;;;;5.82;2.50;;;13.80;99.90;;;;;;5032603;28;20038;-59
2023/09/14 03:46:44;;;;;;;5.47;2.38;;;13.80;99.90;;;;;;5031284;28;20132;-60
2023/09/14 03:49:11;;;;;;;10.10;2.63;;;13.80;99.90;;;;;;5031302;28;20071;-59
2023/09/14 03:51:38;;;;;;;5.45;2.05;;;13.70;99.90;;;;;;5032243;28;20124;-57
2023/09/14 03:54:05;;;;;;;6.07;2.28;;;13.70;99.90;;;;;;5031310;28;20045;-56
2023/09/14 03:56:35;;;;;;;6.65;2.28;;;13.80;99.90;;;;;;5032615;28;20030;-56
2023/09/14 03:59:02;;;;;;;5.57;2.15;;;13.70;99.90;;;;;;5030968;28;20046;-58
2023/09/14 04:01:28;;;;;;;6.05;2.30;;;13.70;99.90;;;;;;5031862;28;20052;-54
2023/09/14 04:03:55;;;;;;;7.45;3.20;;;13.70;99.90;;;;;;5032305;28;20041;-58
2023/09/14 04:06:22;;;;;;;6.00;2.33;;;13.70;99.90;;;;;;5031353;28;20063;-56
2023/09/14 04:08:49;;;;;;;5.38;2.40;;;13.70;99.90;;;;;;5031357;28;20488;-57
2023/09/14 04:11:16;;;;;;;7.57;3.03;;;13.70;99.90;;;;;;5032180;28;20489;-52
2023/09/14 04:13:43;;;;;;;5.07;2.45;;;13.70;99.90;;;;;;5030262;28;20073;-58
2023/09/14 04:16:10;;;;;;;7.00;2.42;;;13.70;99.90;;;;;;5031402;28;20404;-59
2023/09/14 04:18:40;;;;;;;7.28;2.55;;;13.70;99.90;;;;;;5034590;28;20099;-58
2023/09/14 04:21:07;;;;;;;4.80;2.50;;;13.70;99.90;;;;;;5035028;28;20048;-55
2023/09/14 04:23:34;;;;;;;7.80;2.72;;;13.80;99.90;;;;;;5035330;28;20575;-60
2023/09/14 04:26:00;;;;;;;6.80;2.30;;;13.80;99.90;;;;;;5034559;28;20053;-59
2023/09/14 04:28:28;;;;;;;5.90;2.40;;;13.90;99.90;;;;;;5035088;28;20046;-56
2023/09/14 04:30:57;;;;;;;5.68;2.38;;;13.90;99.90;;;;;;5036143;28;20092;-59
2023/09/14 04:33:26;;;;;;;6.00;2.25;;;13.90;99.90;;;;;;5034470;28;20103;-56
2023/09/14 04:35:52;;;;;;;6.63;2.40;;;13.90;99.90;;;;;;5036369;28;20061;-60
2023/09/14 04:38:19;;;;;;;9.23;2.42;;;14.00;99.90;;;;;;5034336;28;20052;-57
2023/09/14 04:40:48;;;;;;;6.28;2.35;;;14.00;99.90;;;;;;5034976;28;20362;-54
2023/09/14 04:43:14;;;;;;;7.72;3.15;;;14.10;99.90;;;;;;5033774;28;20385;-55
2023/09/14 04:45:41;;;;;;;6.78;2.70;;;14.10;99.90;;;;;;5035089;28;20056;-57
2023/09/14 04:48:08;;;;;;;6.90;2.17;;;14.10;99.90;;;;;;5035002;28;20479;-57
2023/09/14 04:50:35;;;;;;;7.60;2.30;;;14.00;99.90;;;;;;5034352;28;20049;-58
2023/09/14 04:53:03;;;;;;;8.77;3.78;;;14.00;99.90;;;;;;5034554;28;20048;-54
2023/09/14 04:55:29;;;;;;;6.82;3.10;;;14.00;99.90;;;;;;5035242;28;20206;-59
2023/09/14 04:57:56;;;;;;;6.07;2.60;;;14.00;99.90;;;;;;5034124;28;20046;-59
2023/09/14 05:00:23;;;;;;;8.05;2.80;;;14.00;99.90;;;;;;5034108;28;20046;-60
2023/09/14 05:02:51;;;;;;;6.53;2.90;;;13.90;99.90;;;;;;5036052;28;20065;-55
2023/09/14 05:05:17;;;;;;;6.78;2.88;;;13.90;99.90;;;;;;5034162;28;20140;-55
2023/09/14 05:07:44;;;;;;;6.85;2.70;;;13.90;99.90;;;;;;5033468;28;20091;-55
2023/09/14 05:10:13;;;;;;;7.32;2.90;;;13.80;99.90;;;;;;5034225;28;20111;-58
2023/09/14 05:12:40;;;;;;;6.55;2.80;;;13.80;99.90;;;;;;5033913;28;20056;-56
2023/09/14 05:15:07;;;;;;;6.03;2.78;;;13.80;99.90;;;;;;5017693;28;20389;-57
2023/09/14 05:17:33;;;;;;;6.63;3.00;;;13.70;99.90;;;;;;5032968;28;20068;-57
2023/09/14 05:20:00;;;;;;;5.30;3.00;;;13.70;99.90;;;;;;5035473;28;20080;-58
2023/09/14 05:22:28;;;;;;;7.22;3.25;;;13.70;99.90;;;;;;5034177;28;20045;-55
2023/09/14 05:24:55;;;;;;;7.57;2.47;;;13.70;99.90;;;;;;5034062;28;20045;-57
2023/09/14 05:27:22;;;;;;;7.90;3.42;;;13.60;99.90;;;;;;5033405;28;20144;-53
2023/09/14 05:29:49;;;;;;;5.75;2.78;;;13.60;99.90;;;;;;5032475;28;20445;-56
2023/09/14 05:32:16;;;;;;;7.55;3.25;;;13.60;99.90;;;;;;5033825;28;20052;-52
2023/09/14 05:34:43;;;;;;;5.82;2.72;;;13.60;99.90;;;;;;5034968;28;20052;-57
2023/09/14 05:37:10;;;;;;;8.68;3.28;;;13.60;99.90;;;;;;5033692;28;20046;-58
2023/09/14 05:39:37;;;;;;;8.88;3.35;;;13.60;99.90;;;;;;5033355;28;20370;-55
2023/09/14 05:42:04;;;;;;;7.32;3.13;;;13.60;99.90;;;;;;5033133;28;20096;-53
2023/09/14 05:44:31;;;;;;;10.18;3.33;;;13.60;99.90;;;;;;5035164;28;20103;-57
2023/09/14 05:46:58;;;;;;;9.43;3.10;;;13.60;99.90;;;;;;5033593;28;20049;-57
2023/09/14 05:49:25;;;;;;;8.43;3.80;;;13.60;99.90;;;;;;5034969;28;20099;-57
2023/09/14 05:51:53;;;;;;;9.95;3.50;;;13.60;99.90;;;;;;5033478;28;20417;-55
2023/09/14 05:54:20;;;;;;;8.85;3.70;;;13.60;99.90;;;;;;5032338;28;20045;-58
2023/09/14 05:56:47;;;;;;;8.40;3.20;;;13.60;99.90;;;;;;5033024;28;20045;-57
2023/09/14 05:59:15;;;;;;;6.40;3.30;;;13.70;99.90;;;;;;5034099;28;20473;-55
2023/09/14 06:01:57;;;;;;;5.18;3.10;;;13.70;99.90;;;;;;5033429;28;20046;-52
2023/09/14 06:04:24;;;;;;;10.18;3.33;;;13.80;99.90;;;;;;5032678;28;20485;-58
2023/09/14 06:06:51;;;;;;;6.85;2.90;;;13.80;99.90;;;;;;5033479;28;20041;-53
2023/09/14 06:09:18;;;;;;;8.18;3.55;;;13.80;99.90;;;;;;5032670;28;20041;-57
2023/09/14 06:11:45;;;;;;;7.93;3.15;;;13.90;99.90;;;;;;5034466;28;20042;-53
2023/09/14 06:14:11;;;;;;;10.95;3.75;;;13.90;99.90;;;;;;5034097;28;20046;-55
2023/09/14 06:16:38;;;;;;;6.95;3.85;;;13.90;99.90;;;;;;5033751;28;20041;-53
2023/09/14 06:19:05;;;;;;;10.45;3.88;;;14.00;99.90;;;;;;5033896;28;20116;-51
2023/09/14 06:21:32;;;;;;;11.85;4.35;;;14.00;99.90;;;;;;5034460;28;20048;-57
2023/09/14 06:23:59;;;;;;;10.65;3.95;;;14.00;99.90;;;;;;5034015;28;20067;-54
2023/09/14 06:26:26;;;;;;;8.90;3.38;;;14.10;99.90;;;;;;5034016;28;20132;-55
2023/09/14 06:28:53;;;;;;;9.90;3.85;;;14.20;99.90;;;;;;5033196;28;20065;-53
2023/09/14 06:31:20;;;;;;;9.73;3.60;;;14.30;99.90;;;;;;5034083;28;20048;-55
2023/09/14 06:33:49;;;;;;;8.52;3.45;;;14.40;99.90;;;;;;5034218;28;20101;-56
2023/09/14 06:36:18;;;;;;;10.32;4.20;;;14.50;99.90;;;;;;5034880;28;20448;-57
2023/09/14 06:38:45;;;;;;;12.27;3.42;;;14.50;99.90;;;;;;5033398;28;20049;-56
2023/09/14 06:41:15;;;;;;;8.55;3.65;;;14.60;99.90;;;;;;5033397;28;20041;-55
2023/09/14 06:43:45;;;;;;;8.80;3.95;;;14.70;99.90;;;;;;5033758;28;20038;-56
2023/09/14 06:46:13;;;;;;;12.13;4.07;;;14.70;99.90;;;;;;5033671;28;20412;-55
2023/09/14 06:48:40;;;;;;;10.05;3.65;;;14.80;99.90;;;;;;5033139;28;20041;-56
2023/09/14 06:51:07;;;;;;;9.43;4.07;;;14.90;99.90;;;;;;5033944;28;20127;-58
2023/09/14 06:53:34;;;;;;;10.55;3.67;;;14.90;99.90;;;;;;5033844;28;20443;-52
2023/09/14 06:56:01;;;;;;;11.68;4.32;;;14.90;99.90;;;;;;5033414;28;20045;-55
2023/09/14 06:58:27;;;;;;;10.93;3.83;;;14.90;99.90;;;;;;5033356;28;20041;-59
2023/09/14 07:00:56;;;;;;;11.65;4.20;;;14.90;99.90;;;;;;5033179;28;20121;-54
2023/09/14 07:03:23;;;;;;;10.27;4.18;;;14.90;99.90;;;;;;5032220;28;20052;-54
2023/09/14 07:05:50;;;;;;;10.23;4.00;;;14.90;99.90;;;;;;5032664;28;20485;-56
2023/09/14 07:08:17;;;;;;;12.00;4.10;;;15.00;99.90;;;;;;5015406;28;20493;-56
2023/09/14 07:10:44;;;;;;;8.90;4.15;;;15.00;99.90;;;;;;5033282;28;20037;-51
2023/09/14 07:13:10;;;;;;;10.43;4.47;;;15.10;99.90;;;;;;5033431;28;20477;-55
2023/09/14 07:15:38;;;;;;;9.90;4.85;;;15.10;99.90;;;;;;5032408;28;20037;-58
2023/09/14 07:18:05;;;;;;;9.70;4.65;;;15.10;99.90;;;;;;5033256;28;20048;-54
2023/09/14 07:20:32;;;;;;;10.15;4.45;;;15.10;99.90;;;;;;5032968;28;20064;-54
2023/09/14 07:22:59;;;;;;;11.20;4.40;;;15.20;99.90;;;;;;5032876;28;20044;-56
2023/09/14 07:25:26;;;;;;;12.77;4.43;;;15.20;99.90;;;;;;5033175;28;20045;-58
2023/09/14 07:27:53;;;;;;;11.38;4.47;;;15.20;99.90;;;;;;5032170;28;20116;-57
2023/09/14 07:30:19;;;;;;;8.80;4.82;;;15.20;99.90;;;;;;5032556;28;20515;-56
2023/09/14 07:32:46;;;;;;;13.30;5.15;;;15.20;99.90;;;;;;5032094;28;20042;-54
2023/09/14 07:35:13;;;;;;;9.07;4.47;;;15.20;99.90;;;;;;5026253;28;20033;-58
2023/09/14 07:37:40;;;;;;;12.25;5.03;;;15.30;99.90;;;;;;5030901;28;20038;-58
2023/09/14 07:40:07;;;;;;;13.95;4.68;;;15.30;99.90;;;;;;5029001;28;20397;-57
2023/09/14 07:42:34;;;;;;;15.32;5.20;;;15.30;99.90;;;;;;5042247;28;20045;-56
2023/09/14 07:45:01;;;;;;;11.38;5.20;;;15.40;99.90;;;;;;5051551;28;20112;-57
2023/09/14 07:47:29;;;;;;;10.70;5.03;;;15.40;99.90;;;;;;5051547;28;20550;-58
2023/09/14 07:49:58;;;;;;;10.82;5.03;;;15.50;99.90;;;;;;5051220;28;20044;-54
2023/09/14 07:52:24;;;;;;;14.38;7.10;;;15.50;99.90;;;;;;5055081;28;20049;-53
2023/09/14 07:54:51;;;;;;;13.50;6.05;;;15.60;99.90;;;;;;5055155;28;20143;-57
2023/09/14 07:57:18;;;;;;;13.88;6.07;;;15.70;99.90;;;;;;5055910;28;20102;-57
2023/09/14 07:59:45;;;;;;;12.38;6.03;;;15.70;99.90;;;;;;5056491;28;20072;-58
2023/09/14 08:02:12;;;;;;;12.18;5.60;;;15.90;99.90;;;;;;5056384;28;20041;-60
2023/09/14 08:04:39;;;;;;;13.45;5.95;;;15.90;99.90;;;;;;5045699;28;20038;-55
2023/09/14 08:07:06;;;;;;;12.88;5.68;;;16.00;99.90;;;;;;5034736;28;20045;-59
2023/09/14 08:09:33;;;;;;;13.10;5.50;;;16.00;99.90;;;;;;5035622;28;20168;-55
2023/09/14 08:11:59;;;;;;;12.00;5.25;;;16.20;99.90;;;;;;5032914;28;20045;-57
2023/09/14 08:14:26;;;;;;;11.35;4.85;;;16.20;99.90;;;;;;5022760;28;20128;-58
2023/09/14 08:16:53;;;;;;;11.10;4.88;;;16.30;99.90;;;;;;5037217;28;20053;-57
2023/09/14 08:19:20;;;;;;;10.35;3.80;;;16.40;99.90;;;;;;5036591;28;20499;-54
2023/09/14 08:21:47;;;;;;;9.05;4.10;;;16.50;99.90;;;;;;5034680;28;20064;-58
2023/09/14 08:24:14;;;;;;;11.70;4.05;;;16.60;99.90;;;;;;5035247;28;20045;-58
2023/09/14 08:26:40;;;;;;;6.38;3.00;;;16.80;99.90;;;;;;5034650;28;20052;-57
2023/09/14 08:29:07;;;;;;;13.25;3.10;;;16.90;99.90;;;;;;5035022;28;20030;-55
2023/09/14 08:31:34;;;;;;;8.13;3.00;;;17.00;99.90;;;;;;5035457;28;20041;-56
2023/09/14 08:34:01;;;;;;;8.40;3.13;;;17.10;99.90;;;;;;5034977;28;20065;-57
2023/09/14 08:36:28;;;;;;;7.55;3.15;;;17.20;99.90;;;;;;5035447;28;20053;-55
2023/09/14 08:38:54;;;;;;;12.88;2.88;;;17.20;99.90;;;;;;5035242;28;20373;-58
2023/09/14 08:41:43;;;;;;;10.27;2.75;;;17.30;99.90;;;;;;5035678;28;20034;-58
2023/09/14 08:44:10;;;;;;;10.35;3.60;;;17.30;99.90;;;;;;5035352;28;20116;-58
2023/09/14 08:46:36;;;;;;;12.15;3.08;;;17.30;99.90;;;;;;5034264;28;20045;-55
2023/09/14 08:49:03;;;;;;;9.98;2.97;;;17.40;99.90;;;;;;5035707;28;20056;-55
2023/09/14 08:51:30;;;;;;;8.52;2.83;;;17.40;99.90;;;;;;5035372;28;20057;-60
2023/09/14 08:53:57;;;;;;;8.45;3.08;;;17.40;99.90;;;;;;5034231;28;20042;-58
2023/09/14 08:56:43;;;;;;;8.63;3.40;;;17.50;99.90;;;;;;5030145;28;20072;-59
2023/09/14 08:59:11;;;;;;;10.43;3.05;;;17.60;99.90;;;;;;5035346;28;20044;-59
2023/09/14 09:01:38;;;;;;;10.15;2.90;;;17.80;99.90;;;;;;5035161;28;20034;-61
2023/09/14 09:04:04;;;;;;;9.63;3.35;;;17.80;99.90;;;;;;5033564;28;20061;-57
2023/09/14 09:06:31;;;;;;;8.65;3.10;;;18.00;99.90;;;;;;5034501;28;20542;-53
2023/09/14 09:08:58;;;;;;;8.18;2.97;;;18.00;99.90;;;;;;5033146;28;20056;-58
2023/09/14 09:11:25;;;;;;;10.60;3.30;;;17.90;99.90;;;;;;5035128;28;20060;-57
2023/09/14 09:13:52;;;;;;;12.60;3.33;;;18.00;99.90;;;;;;5033942;28;20046;-58
2023/09/14 09:16:18;;;;;;;8.00;3.13;;;18.00;99.90;;;;;;5035242;28;20038;-57
2023/09/14 09:18:45;;;;;;;10.65;3.40;;;18.00;99.90;;;;;;5033264;28;20052;-60
2023/09/14 09:21:13;;;;;;;7.85;3.33;;;18.00;99.90;;;;;;5034182;28;20049;-56
2023/09/14 09:23:39;;;;;;;8.43;3.28;;;18.00;99.90;;;;;;5034187;28;20041;-49
2023/09/14 09:26:06;;;;;;;7.80;3.00;;;18.00;99.90;;;;;;5034781;28;20124;-50
2023/09/14 09:28:33;;;;;;;10.07;3.08;;;18.00;99.90;;;;;;5028166;28;20045;-58
2023/09/14 09:31:00;;;;;;;6.50;2.97;;;18.10;99.90;;;;;;5027725;28;20117;-58
2023/09/14 09:33:27;;;;;;;12.18;2.85;;;18.20;99.90;;;;;;5033625;28;20046;-60
2023/09/14 09:35:53;;;;;;;8.10;2.97;;;18.20;99.90;;;;;;5034494;28;20052;-56
2023/09/14 09:38:23;;;;;;;13.40;3.20;;;18.40;99.90;;;;;;5034448;28;20046;-57
2023/09/14 09:40:50;;;;;;;8.15;2.70;;;18.40;99.90;;;;;;5034192;28;20209;-58
2023/09/14 09:43:17;;;;;;;8.23;2.92;;;18.40;99.90;;;;;;5034296;28;20148;-60
2023/09/14 09:45:46;;;;;;;6.78;2.28;;;18.50;99.90;;;;;;5034178;28;20077;-60
2023/09/14 09:48:13;;;;;;;5.78;2.20;;;18.70;99.90;;;;;;5034043;28;20403;-57
2023/09/14 09:50:40;;;;;;;5.40;2.20;;;19.00;99.90;;;;;;5034345;28;20496;-56
2023/09/14 09:53:06;;;;;;;7.68;2.40;;;19.20;99.90;;;;;;5033952;28;20033;-54
2023/09/14 09:55:33;;;;;;;7.10;1.80;;;19.40;99.90;;;;;;5033330;28;20049;-56
2023/09/14 09:58:00;;;;;;;8.90;2.20;;;19.50;99.90;;;;;;5034107;28;20033;-55
2023/09/14 10:00:27;;;;;;;5.78;2.08;;;19.60;99.90;;;;;;5033938;28;20184;-54
2023/09/14 10:02:54;;;;;;;8.27;3.40;;;19.80;99.90;;;;;;5034135;28;20211;-55
2023/09/14 10:05:21;;;;;;;7.22;2.20;;;19.90;99.90;;;;;;5034269;28;20037;-56
2023/09/14 10:07:47;;;;;;;5.18;2.08;;;20.00;99.90;;;;;;5032513;28;20107;-58
2023/09/14 10:10:14;;;;;;;4.70;1.75;;;20.00;99.90;;;;;;5033994;28;20042;-58
2023/09/14 10:12:41;;;;;;;5.28;1.95;;;20.00;99.90;;;;;;5033443;28;20041;-56
2023/09/14 10:15:08;;;;;;;5.03;2.00;;;19.90;99.90;;;;;;5033135;28;20044;-57
2023/09/14 10:17:35;;;;;;;4.85;1.50;;;20.00;99.90;;;;;;5033485;28;20404;-54
2023/09/14 10:20:03;;;;;;;5.35;1.50;;;20.00;99.90;;;;;;5034346;28;20091;-53
2023/09/14 10:22:29;;;;;;;6.53;1.33;;;20.10;99.90;;;;;;5033840;28;20033;-59
2023/09/14 10:24:56;;;;;;;4.47;1.60;;;20.00;99.90;;;;;;5033084;28;20038;-54
2023/09/14 10:27:23;;;;;;;5.13;1.60;;;20.10;99.90;;;;;;5033715;28;20041;-54
2023/09/14 10:29:50;;;;;;;3.95;1.65;;;20.10;99.90;;;;;;5033530;28;20501;-57
2023/09/14 10:32:20;;;;;;;4.45;1.60;;;20.10;99.90;;;;;;5031736;28;20111;-58
2023/09/14 10:34:47;;;;;;;4.78;1.60;;;20.10;99.90;;;;;;5033675;28;20049;-58
2023/09/14 10:37:31;;;;;;;3.13;1.20;;;20.10;99.90;;;;;;5026858;28;20116;-52
2023/09/14 10:39:59;;;;;;;2.95;1.42;;;20.20;99.90;;;;;;5033105;28;20044;-54
2023/09/14 10:42:26;;;;;;;3.67;1.30;;;20.10;99.40;;;;;;5032548;28;20038;-53
2023/09/14 10:44:52;;;;;;;3.45;1.40;;;20.10;99.60;;;;;;5033303;28;20048;-57
2023/09/14 10:47:19;;;;;;;3.53;1.40;;;20.10;99.70;;;;;;5033010;28;20477;-60
2023/09/14 10:49:46;;;;;;;3.60;1.20;;;20.00;99.80;;;;;;5033112;28;20045;-53
2023/09/14 10:52:13;;;;;;;4.13;1.45;;;20.10;99.80;;;;;;5033293;28;20048;-59
2023/09/14 10:54:40;;;;;;;4.57;1.55;;;20.10;99.70;;;;;;5033327;28;20045;-58
2023/09/14 10:57:06;;;;;;;6.03;1.45;;;20.10;99.80;;;;;;5032343;28;20519;-58
2023/09/14 10:59:34;;;;;;;3.42;1.50;;;20.20;99.40;;;;;;5032702;28;20129;-59
2023/09/14 11:02:01;;;;;;;7.25;1.70;;;20.20;99.40;;;;;;5032127;28;20409;-61
2023/09/14 11:04:47;;;;;;;6.65;1.42;;;20.30;98.90;;;;;;5029670;28;20049;-59
2023/09/14 11:07:15;;;;;;;12.07;1.70;;;20.30;99.20;;;;;;5031699;28;20045;-60
2023/09/14 11:09:42;;;;;;;4.68;1.60;;;20.30;99.10;;;;;;5033201;28;20056;-59
2023/09/14 11:12:10;;;;;;;12.50;2.00;;;20.40;99.10;;;;;;5032792;28;20432;-57
2023/09/14 11:14:37;;;;;;;7.57;1.70;;;20.40;99.00;;;;;;5033196;28;20477;-58
2023/09/14 11:17:05;;;;;;;6.45;1.55;;;20.40;98.80;;;;;;5032430;28;20049;-57
2023/09/14 11:19:32;;;;;;;3.50;1.35;;;20.40;99.00;;;;;;5032380;28;20056;-56
2023/09/14 11:22:19;;;;;;;4.40;1.60;;;20.40;98.90;;;;;;5032935;28;20061;-57
2023/09/14 11:24:47;;;;;;;3.35;1.50;;;20.40;98.20;;;;;;5032789;28;20037;-54
2023/09/14 11:27:17;;;;;;;3.30;1.30;;;20.30;98.00;;;;;;5032805;28;20050;-56
2023/09/14 11:29:47;;;;;;;2.72;1.50;;;20.40;98.00;;;;;;5032661;28;20556;-57
2023/09/14 11:32:17;;;;;;;6.55;1.63;;;20.30;97.60;;;;;;5031796;28;20129;-57
2023/09/14 11:34:46;;;;;;;14.55;1.67;;;20.30;98.10;;;;;;5032618;28;20041;-58
2023/09/14 11:37:15;;;;;;;4.90;1.83;;;20.30;98.30;;;;;;5031803;28;20072;-55
2023/09/14 11:39:47;;;;;;;2.85;1.33;;;20.40;97.70;;;;;;5032707;28;20551;-58
2023/09/14 11:42:18;;;;;;;5.03;1.30;;;20.40;97.60;;;;;;5032873;28;20068;-57
2023/09/14 11:44:49;;;;;;;7.60;1.73;;;20.40;97.30;;;;;;5032193;28;20037;-54
2023/09/14 11:47:19;;;;;;;6.85;1.67;;;20.40;97.60;;;;;;5032359;28;20484;-52
2023/09/14 11:49:49;;;;;;;6.07;1.60;;;20.60;97.90;;;;;;5032475;28;20129;-60
2023/09/14 11:52:17;;;;;;;14.93;2.30;;;20.70;97.60;;;;;;5026254;28;20041;-57
2023/09/14 11:54:44;;;;;;;5.75;1.33;;;20.80;97.20;;;;;;5025500;28;20358;-56
2023/09/14 11:57:12;;;;;;;5.28;1.45;;;20.90;97.10;;;;;;5032120;28;20042;-55
2023/09/14 11:59:39;;;;;;;5.38;1.40;;;21.00;97.20;;;;;;5025708;28;20060;-60
2023/09/14 12:02:06;;;;;;;6.25;1.20;;;21.10;97.30;;;;;;5031331;28;20119;-58
2023/09/14 12:04:33;;;;;;;5.22;1.17;;;21.30;96.40;;;;;;5032131;28;20120;-56
2023/09/14 12:07:00;;;;;;;3.60;1.40;;;21.30;96.00;;;;;;5030260;28;20048;-56
2023/09/14 12:09:26;;;;;;;2.45;1.35;;;21.50;95.80;;;;;;5032437;28;20496;-58
2023/09/14 12:11:56;;;;;;;6.53;1.58;;;21.50;96.70;;;;;;5023824;28;20053;-59
2023/09/14 12:14:23;;;;;;;4.90;1.40;;;21.50;96.50;;;;;;5030778;28;20080;-55
2023/09/14 12:16:50;;;;;;;2.53;1.20;;;21.60;96.00;;;;;;5032158;28;20041;-54
2023/09/14 12:19:17;;;;;;;2.30;1.30;;;21.60;95.30;;;;;;5030946;28;20053;-58
2023/09/14 12:21:43;;;;;;;2.63;1.20;;;21.70;94.80;;;;;;5030828;28;20061;-54
2023/09/14 12:24:10;;;;;;;2.88;1.30;;;21.70;94.50;;;;;;5032360;28;20044;-58
2023/09/14 12:26:37;;;;;;;3.70;1.20;;;21.70;94.80;;;;;;5031614;28;20041;-59
2023/09/14 12:29:04;;;;;;;5.60;1.13;;;21.60;94.80;;;;;;5031661;28;20099;-52
2023/09/14 12:31:34;;;;;;;5.88;1.27;;;21.60;95.00;;;;;;5031405;28;20076;-58
2023/09/14 12:34:01;;;;;;;9.30;1.40;;;21.70;95.40;;;;;;5031758;28;20036;-57
2023/09/14 12:36:28;;;;;;;4.13;1.40;;;21.70;95.40;;;;;;5032149;28;20133;-54
2023/09/14 12:38:55;;;;;;;3.47;1.23;;;21.70;95.00;;;;;;5034112;28;20042;-55
2023/09/14 12:41:22;;;;;;;3.20;0.95;;;21.70;94.80;;;;;;5035215;28;20068;-56
2023/09/14 12:43:49;;;;;;;2.15;0.93;;;21.70;94.60;;;;;;5034955;28;20041;-58
2023/09/14 12:46:16;;;;;;;3.08;1.20;;;21.70;95.20;;;;;;5035637;28;20534;-57